Terminal Aerodrome Forecast
Issued by NWS

Home | Current Version | Previous Version | Text Only | Print | Product List | Glossary On
Versions: 1 2 3 4 5 6 7 8 9 10 11 12
576
FTUS42 TJSJ 041140
TAFKPK
TAF
TKPK 041140Z 0412/0512 06005KT P6SM VCSH FEW020
     FM041300 08010KT P6SM VCSH FEW018 SCT030
     FM042300 09008KT P6SM FEW020
      AMD NOT SKED 0502/0511=

USA.gov is the U.S. government's official web portal to all federal, state and local government web resources and services.